sensor_id;sensor_type;location;lat;lon;timestamp;pressure;altitude;pressure_sealevel;temperature;humidity
57290;BME280;43523;53.022;-1.178;2022-09-17T00:01:02;101544.22;;;5.39;67.96
57290;BME280;43523;53.022;-1.178;2022-09-17T00:02:04;101540.64;;;5.57;65.71
57290;BME280;43523;53.022;-1.178;2022-09-17T00:03:08;101542.59;;;5.17;73.70
57290;BME280;43523;53.022;-1.178;2022-09-17T00:04:11;101539.90;;;5.50;71.17
57290;BME280;43523;53.022;-1.178;2022-09-17T00:05:13;101542.18;;;5.13;68.80
57290;BME280;43523;53.022;-1.178;2022-09-17T00:06:15;101540.90;;;4.62;70.35
57290;BME280;43523;53.022;-1.178;2022-09-17T00:07:18;101536.40;;;5.31;63.37
57290;BME280;43523;53.022;-1.178;2022-09-17T00:08:20;101540.82;;;4.81;69.17
57290;BME280;43523;53.022;-1.178;2022-09-17T00:09:23;101539.98;;;5.30;66.14
57290;BME280;43523;53.022;-1.178;2022-09-17T00:10:26;101537.72;;;5.48;62.07
57290;BME280;43523;53.022;-1.178;2022-09-17T00:11:31;101539.42;;;5.16;69.08
57290;BME280;43523;53.022;-1.178;2022-09-17T00:12:34;101544.43;;;5.27;67.97
57290;BME280;43523;53.022;-1.178;2022-09-17T00:13:36;101543.42;;;5.18;63.93
57290;BME280;43523;53.022;-1.178;2022-09-17T00:14:39;101546.21;;;5.24;69.41
57290;BME280;43523;53.022;-1.178;2022-09-17T00:15:44;101549.31;;;4.49;72.26
57290;BME280;43523;53.022;-1.178;2022-09-17T00:16:48;101547.65;;;4.71;72.79
57290;BME280;43523;53.022;-1.178;2022-09-17T00:17:53;101546.73;;;5.25;66.31
57290;BME280;43523;53.022;-1.178;2022-09-17T00:18:57;101547.13;;;5.29;68.05
57290;BME280;43523;53.022;-1.178;2022-09-17T00:20:00;101548.32;;;4.90;70.73
57290;BME280;43523;53.022;-1.178;2022-09-17T00:21:02;101550.35;;;4.69;73.02
57290;BME280;43523;53.022;-1.178;2022-09-17T00:22:04;101547.41;;;5.04;71.41
57290;BME280;43523;53.022;-1.178;2022-09-17T00:23:07;101543.49;;;5.36;66.06
57290;BME280;43523;53.022;-1.178;2022-09-17T00:24:11;101541.74;;;5.16;69.24
57290;BME280;43523;53.022;-1.178;2022-09-17T00:25:14;101539.60;;;5.00;70.75
57290;BME280;43523;53.022;-1.178;2022-09-17T00:26:16;101538.84;;;4.23;74.74
57290;BME280;43523;53.022;-1.178;2022-09-17T00:27:19;101541.87;;;3.67;76.21
57290;BME280;43523;53.022;-1.178;2022-09-17T00:28:21;101539.26;;;4.44;73.50
57290;BME280;43523;53.022;-1.178;2022-09-17T00:29:23;101537.53;;;4.82;70.30
57290;BME280;43523;53.022;-1.178;2022-09-17T00:30:26;101536.23;;;4.74;67.77
57290;BME280;43523;53.022;-1.178;2022-09-17T00:31:29;101536.71;;;4.94;67.74
57290;BME280;43523;53.022;-1.178;2022-09-17T00:32:32;101540.81;;;4.58;71.56
57290;BME280;43523;53.022;-1.178;2022-09-17T00:33:34;101539.15;;;4.93;65.16
57290;BME280;43523;53.022;-1.178;2022-09-17T00:34:37;101539.26;;;4.88;65.26
57290;BME280;43523;53.022;-1.178;2022-09-17T00:35:39;101538.87;;;4.50;70.96
57290;BME280;43523;53.022;-1.178;2022-09-17T00:36:42;101537.63;;;4.69;69.67
57290;BME280;43523;53.022;-1.178;2022-09-17T00:37:44;101537.62;;;4.31;74.10
57290;BME280;43523;53.022;-1.178;2022-09-17T00:38:48;101536.36;;;3.95;74.07
57290;BME280;43523;53.022;-1.178;2022-09-17T00:39:51;101533.52;;;4.27;77.52
57290;BME280;43523;53.022;-1.178;2022-09-17T00:40:53;101532.41;;;4.73;74.06
57290;BME280;43523;53.022;-1.178;2022-09-17T00:41:57;101533.46;;;4.07;74.25
57290;BME280;43523;53.022;-1.178;2022-09-17T00:42:59;101532.08;;;4.18;77.39
57290;BME280;43523;53.022;-1.178;2022-09-17T00:44:40;101534.64;;;4.06;78.44
57290;BME280;43523;53.022;-1.178;2022-09-17T00:45:42;101533.60;;;3.99;78.37
57290;BME280;43523;53.022;-1.178;2022-09-17T00:46:45;101538.99;;;3.73;77.20
57290;BME280;43523;53.022;-1.178;2022-09-17T00:47:51;101536.51;;;3.95;81.53
57290;BME280;43523;53.022;-1.178;2022-09-17T00:48:58;101537.48;;;4.20;79.46
57290;BME280;43523;53.022;-1.178;2022-09-17T00:50:04;101537.76;;;3.91;77.56
57290;BME280;43523;53.022;-1.178;2022-09-17T00:51:08;101540.34;;;3.67;78.56
57290;BME280;43523;53.022;-1.178;2022-09-17T00:52:14;101536.25;;;4.11;80.20
57290;BME280;43523;53.022;-1.178;2022-09-17T00:53:19;101534.90;;;4.54;79.84
57290;BME280;43523;53.022;-1.178;2022-09-17T00:54:23;101540.78;;;3.91;78.75
57290;BME280;43523;53.022;-1.178;2022-09-17T00:55:27;101534.20;;;4.60;75.96
57290;BME280;43523;53.022;-1.178;2022-09-17T00:56:32;101536.39;;;4.32;79.83
57290;BME280;43523;53.022;-1.178;2022-09-17T00:57:35;101537.43;;;4.21;80.59
57290;BME280;43523;53.022;-1.178;2022-09-17T00:58:38;101534.70;;;4.65;80.61
57290;BME280;43523;53.022;-1.178;2022-09-17T00:59:40;101536.90;;;3.96;77.13
57290;BME280;43523;53.022;-1.178;2022-09-17T01:00:42;101535.02;;;4.46;80.44
57290;BME280;43523;53.022;-1.178;2022-09-17T01:01:45;101535.30;;;4.39;75.84
57290;BME280;43523;53.022;-1.178;2022-09-17T01:02:47;101530.94;;;4.74;68.75
57290;BME280;43523;53.022;-1.178;2022-09-17T01:03:50;101537.32;;;4.44;71.76
57290;BME280;43523;53.022;-1.178;2022-09-17T01:04:52;101535.96;;;4.39;74.26
57290;BME280;43523;53.022;-1.178;2022-09-17T01:06:00;101537.32;;;4.90;74.07
57290;BME280;43523;53.022;-1.178;2022-09-17T01:07:10;101536.00;;;5.11;69.58
57290;BME280;43523;53.022;-1.178;2022-09-17T01:08:24;101537.46;;;4.87;78.11
57290;BME280;43523;53.022;-1.178;2022-09-17T01:09:35;101539.29;;;4.69;80.11
57290;BME280;43523;53.022;-1.178;2022-09-17T01:10:53;101539.37;;;5.23;78.30
57290;BME280;43523;53.022;-1.178;2022-09-17T01:12:13;101538.60;;;5.38;79.49
57290;BME280;43523;53.022;-1.178;2022-09-17T01:13:27;101534.11;;;5.60;70.92
57290;BME280;43523;53.022;-1.178;2022-09-17T01:14:45;101538.10;;;5.08;74.85
57290;BME280;43523;53.022;-1.178;2022-09-17T01:15:54;101535.45;;;5.43;76.46
57290;BME280;43523;53.022;-1.178;2022-09-17T01:17:07;101537.31;;;4.57;74.26
57290;BME280;43523;53.022;-1.178;2022-09-17T01:18:21;101537.67;;;4.93;76.16
57290;BME280;43523;53.022;-1.178;2022-09-17T01:21:47;101539.82;;;5.66;77.28
57290;BME280;43523;53.022;-1.178;2022-09-17T01:23:02;101537.63;;;4.96;75.20
57290;BME280;43523;53.022;-1.178;2022-09-17T01:24:30;101538.81;;;5.17;76.76
57290;BME280;43523;53.022;-1.178;2022-09-17T01:25:48;101536.24;;;5.40;75.82
57290;BME280;43523;53.022;-1.178;2022-09-17T01:29:35;101534.17;;;5.43;75.47
57290;BME280;43523;53.022;-1.178;2022-09-17T01:31:00;101534.67;;;4.56;71.77
57290;BME280;43523;53.022;-1.178;2022-09-17T01:32:06;101533.93;;;4.86;76.59
57290;BME280;43523;53.022;-1.178;2022-09-17T01:33:16;101531.51;;;4.50;80.19
57290;BME280;43523;53.022;-1.178;2022-09-17T01:34:27;101532.94;;;4.92;76.14
57290;BME280;43523;53.022;-1.178;2022-09-17T01:35:35;101529.05;;;4.81;73.57
57290;BME280;43523;53.022;-1.178;2022-09-17T01:36:47;101528.00;;;5.14;74.84
57290;BME280;43523;53.022;-1.178;2022-09-17T01:38:02;101528.31;;;5.13;79.87
57290;BME280;43523;53.022;-1.178;2022-09-17T01:39:12;101528.33;;;5.13;74.68
57290;BME280;43523;53.022;-1.178;2022-09-17T01:40:24;101530.40;;;5.20;79.60
57290;BME280;43523;53.022;-1.178;2022-09-17T01:41:33;101530.19;;;5.31;76.91
57290;BME280;43523;53.022;-1.178;2022-09-17T01:42:48;101528.97;;;4.86;76.45
57290;BME280;43523;53.022;-1.178;2022-09-17T01:43:57;101528.58;;;5.11;81.23
57290;BME280;43523;53.022;-1.178;2022-09-17T01:45:04;101527.50;;;5.53;79.07
57290;BME280;43523;53.022;-1.178;2022-09-17T01:46:13;101527.62;;;5.05;79.22
57290;BME280;43523;53.022;-1.178;2022-09-17T01:47:22;101528.53;;;5.01;77.24
57290;BME280;43523;53.022;-1.178;2022-09-17T01:48:29;101527.50;;;5.13;77.26
57290;BME280;43523;53.022;-1.178;2022-09-17T01:49:34;101524.96;;;5.12;78.03
57290;BME280;43523;53.022;-1.178;2022-09-17T01:50:41;101523.28;;;5.62;79.06
57290;BME280;43523;53.022;-1.178;2022-09-17T01:51:47;101524.21;;;5.51;74.80
57290;BME280;43523;53.022;-1.178;2022-09-17T01:52:53;101526.12;;;5.35;77.53
57290;BME280;43523;53.022;-1.178;2022-09-17T01:54:00;101526.30;;;5.64;75.84
57290;BME280;43523;53.022;-1.178;2022-09-17T01:55:06;101524.43;;;5.57;71.65
57290;BME280;43523;53.022;-1.178;2022-09-17T01:56:13;101526.89;;;5.37;74.37
57290;BME280;43523;53.022;-1.178;2022-09-17T01:57:24;101526.07;;;4.48;69.11
57290;BME280;43523;53.022;-1.178;2022-09-17T01:58:30;101524.03;;;5.18;75.36
57290;BME280;43523;53.022;-1.178;2022-09-17T01:59:38;101522.66;;;5.13;73.03
57290;BME280;43523;53.022;-1.178;2022-09-17T02:00:46;101521.14;;;4.95;79.81
57290;BME280;43523;53.022;-1.178;2022-09-17T02:01:55;101520.69;;;4.71;81.70
57290;BME280;43523;53.022;-1.178;2022-09-17T02:03:05;101521.04;;;4.78;76.42
57290;BME280;43523;53.022;-1.178;2022-09-17T02:04:12;101525.99;;;4.48;77.55
57290;BME280;43523;53.022;-1.178;2022-09-17T02:05:19;101524.39;;;4.88;74.24
57290;BME280;43523;53.022;-1.178;2022-09-17T02:06:25;101526.70;;;4.83;74.08
57290;BME280;43523;53.022;-1.178;2022-09-17T02:07:32;101526.54;;;4.48;77.48
57290;BME280;43523;53.022;-1.178;2022-09-17T02:08:44;101525.39;;;4.80;77.13
57290;BME280;43523;53.022;-1.178;2022-09-17T02:09:51;101525.76;;;4.80;74.45
57290;BME280;43523;53.022;-1.178;2022-09-17T02:11:00;101523.35;;;4.88;70.24
57290;BME280;43523;53.022;-1.178;2022-09-17T02:12:08;101522.98;;;4.90;70.33
57290;BME280;43523;53.022;-1.178;2022-09-17T02:13:16;101522.62;;;4.92;66.48
57290;BME280;43523;53.022;-1.178;2022-09-17T02:14:22;101525.74;;;4.83;70.42
57290;BME280;43523;53.022;-1.178;2022-09-17T02:15:30;101526.26;;;4.81;67.44
57290;BME280;43523;53.022;-1.178;2022-09-17T02:16:36;101527.47;;;4.43;73.63
57290;BME280;43523;53.022;-1.178;2022-09-17T02:17:43;101525.34;;;4.47;67.95
57290;BME280;43523;53.022;-1.178;2022-09-17T02:18:52;101524.65;;;4.35;73.23
57290;BME280;43523;53.022;-1.178;2022-09-17T02:19:57;101524.06;;;4.34;66.65
57290;BME280;43523;53.022;-1.178;2022-09-17T02:21:06;101526.01;;;4.07;78.35
57290;BME280;43523;53.022;-1.178;2022-09-17T02:22:15;101527.77;;;4.47;75.78
57290;BME280;43523;53.022;-1.178;2022-09-17T02:23:23;101528.44;;;4.33;77.39
57290;BME280;43523;53.022;-1.178;2022-09-17T02:24:36;101528.55;;;4.29;78.15
57290;BME280;43523;53.022;-1.178;2022-09-17T02:25:49;101529.51;;;4.41;78.54
57290;BME280;43523;53.022;-1.178;2022-09-17T02:26:58;101533.34;;;4.40;78.08
57290;BME280;43523;53.022;-1.178;2022-09-17T02:28:05;101531.14;;;4.50;78.48
57290;BME280;43523;53.022;-1.178;2022-09-17T02:29:12;101533.27;;;4.59;79.67
57290;BME280;43523;53.022;-1.178;2022-09-17T02:30:17;101534.48;;;4.68;80.19
57290;BME280;43523;53.022;-1.178;2022-09-17T02:31:19;101535.03;;;4.78;83.80
57290;BME280;43523;53.022;-1.178;2022-09-17T02:32:21;101536.01;;;4.69;81.82
57290;BME280;43523;53.022;-1.178;2022-09-17T02:33:25;101536.56;;;4.85;76.61
57290;BME280;43523;53.022;-1.178;2022-09-17T02:34:28;101535.30;;;5.13;73.40
57290;BME280;43523;53.022;-1.178;2022-09-17T02:35:31;101535.12;;;4.93;74.91
57290;BME280;43523;53.022;-1.178;2022-09-17T02:36:33;101533.81;;;4.71;72.13
57290;BME280;43523;53.022;-1.178;2022-09-17T02:37:35;101536.24;;;4.56;79.47
57290;BME280;43523;53.022;-1.178;2022-09-17T02:38:42;101536.16;;;4.51;78.95
57290;BME280;43523;53.022;-1.178;2022-09-17T02:39:45;101538.36;;;4.62;77.64
57290;BME280;43523;53.022;-1.178;2022-09-17T02:40:52;101538.22;;;4.46;79.31
57290;BME280;43523;53.022;-1.178;2022-09-17T02:42:12;101535.39;;;4.77;77.58
57290;BME280;43523;53.022;-1.178;2022-09-17T02:43:25;101531.21;;;4.50;80.58
57290;BME280;43523;53.022;-1.178;2022-09-17T02:44:34;101532.95;;;4.27;78.70
57290;BME280;43523;53.022;-1.178;2022-09-17T02:45:47;101531.69;;;4.77;82.06
57290;BME280;43523;53.022;-1.178;2022-09-17T02:47:09;101531.55;;;4.73;81.91
57290;BME280;43523;53.022;-1.178;2022-09-17T02:48:29;101530.59;;;4.56;78.41
57290;BME280;43523;53.022;-1.178;2022-09-17T02:49:54;101529.75;;;4.87;80.84
57290;BME280;43523;53.022;-1.178;2022-09-17T02:51:11;101529.43;;;5.09;73.12
57290;BME280;43523;53.022;-1.178;2022-09-17T02:52:28;101528.67;;;5.06;69.33
57290;BME280;43523;53.022;-1.178;2022-09-17T02:53:40;101533.22;;;4.63;78.05
57290;BME280;43523;53.022;-1.178;2022-09-17T02:54:53;101534.28;;;4.79;73.60
57290;BME280;43523;53.022;-1.178;2022-09-17T02:56:09;101531.97;;;4.71;69.11
57290;BME280;43523;53.022;-1.178;2022-09-17T02:57:19;101535.49;;;4.85;69.81
57290;BME280;43523;53.022;-1.178;2022-09-17T02:58:25;101532.57;;;4.94;67.36
57290;BME280;43523;53.022;-1.178;2022-09-17T02:59:36;101537.29;;;4.88;66.66
57290;BME280;43523;53.022;-1.178;2022-09-17T03:00:40;101537.81;;;4.97;75.46
57290;BME280;43523;53.022;-1.178;2022-09-17T03:01:45;101533.26;;;4.53;68.06
57290;BME280;43523;53.022;-1.178;2022-09-17T03:02:55;101532.52;;;4.51;73.59
57290;BME280;43523;53.022;-1.178;2022-09-17T03:04:00;101531.92;;;4.47;73.76
57290;BME280;43523;53.022;-1.178;2022-09-17T03:05:05;101532.55;;;4.63;67.95
57290;BME280;43523;53.022;-1.178;2022-09-17T03:06:08;101532.34;;;4.35;67.16
57290;BME280;43523;53.022;-1.178;2022-09-17T03:07:11;101529.47;;;4.87;67.02
57290;BME280;43523;53.022;-1.178;2022-09-17T03:08:15;101531.42;;;4.74;70.39
57290;BME280;43523;53.022;-1.178;2022-09-17T03:09:18;101529.27;;;4.31;68.96
57290;BME280;43523;53.022;-1.178;2022-09-17T03:10:20;101527.57;;;4.34;68.86
57290;BME280;43523;53.022;-1.178;2022-09-17T03:11:23;101528.29;;;4.23;67.76
57290;BME280;43523;53.022;-1.178;2022-09-17T03:12:26;101529.52;;;4.46;69.07
57290;BME280;43523;53.022;-1.178;2022-09-17T03:13:28;101532.39;;;4.20;72.51
57290;BME280;43523;53.022;-1.178;2022-09-17T03:14:30;101536.07;;;4.22;72.47
57290;BME280;43523;53.022;-1.178;2022-09-17T03:15:33;101536.48;;;4.25;73.63
57290;BME280;43523;53.022;-1.178;2022-09-17T03:16:35;101536.21;;;4.27;78.34
57290;BME280;43523;53.022;-1.178;2022-09-17T03:17:38;101536.41;;;4.53;79.32
57290;BME280;43523;53.022;-1.178;2022-09-17T03:18:40;101539.40;;;4.68;80.65
57290;BME280;43523;53.022;-1.178;2022-09-17T03:19:43;101540.69;;;4.24;81.23
57290;BME280;43523;53.022;-1.178;2022-09-17T03:20:45;101540.68;;;4.48;80.30
57290;BME280;43523;53.022;-1.178;2022-09-17T03:21:49;101542.44;;;4.61;80.55
57290;BME280;43523;53.022;-1.178;2022-09-17T03:22:51;101540.04;;;4.49;80.77
57290;BME280;43523;53.022;-1.178;2022-09-17T03:23:54;101538.16;;;4.74;76.54
57290;BME280;43523;53.022;-1.178;2022-09-17T03:24:57;101535.89;;;4.49;78.51
57290;BME280;43523;53.022;-1.178;2022-09-17T03:26:00;101533.66;;;4.64;77.85
57290;BME280;43523;53.022;-1.178;2022-09-17T03:27:02;101532.75;;;4.51;80.38
57290;BME280;43523;53.022;-1.178;2022-09-17T03:28:04;101531.63;;;4.36;81.75
57290;BME280;43523;53.022;-1.178;2022-09-17T03:29:07;101529.86;;;4.67;76.24
57290;BME280;43523;53.022;-1.178;2022-09-17T03:30:10;101530.10;;;4.12;73.87
57290;BME280;43523;53.022;-1.178;2022-09-17T03:31:12;101529.85;;;4.22;71.25
57290;BME280;43523;53.022;-1.178;2022-09-17T03:32:14;101526.91;;;4.07;68.78
57290;BME280;43523;53.022;-1.178;2022-09-17T03:33:17;101523.95;;;4.03;71.86
57290;BME280;43523;53.022;-1.178;2022-09-17T03:34:19;101525.79;;;3.91;78.46
57290;BME280;43523;53.022;-1.178;2022-09-17T03:35:22;101525.68;;;4.47;76.08
57290;BME280;43523;53.022;-1.178;2022-09-17T03:36:24;101524.81;;;4.27;75.85
57290;BME280;43523;53.022;-1.178;2022-09-17T03:37:27;101527.36;;;4.60;72.43
57290;BME280;43523;53.022;-1.178;2022-09-17T03:38:30;101534.25;;;3.97;78.98
57290;BME280;43523;53.022;-1.178;2022-09-17T03:39:32;101533.00;;;4.18;81.80
57290;BME280;43523;53.022;-1.178;2022-09-17T03:40:34;101531.04;;;4.30;78.69
57290;BME280;43523;53.022;-1.178;2022-09-17T03:41:37;101533.01;;;3.66;81.47
57290;BME280;43523;53.022;-1.178;2022-09-17T03:42:39;101530.03;;;4.04;79.07
57290;BME280;43523;53.022;-1.178;2022-09-17T03:43:42;101531.53;;;3.87;83.10
57290;BME280;43523;53.022;-1.178;2022-09-17T03:44:44;101524.50;;;4.21;77.48
57290;BME280;43523;53.022;-1.178;2022-09-17T03:45:47;101526.99;;;4.12;82.62
57290;BME280;43523;53.022;-1.178;2022-09-17T03:46:49;101529.32;;;3.78;82.11
57290;BME280;43523;53.022;-1.178;2022-09-17T03:47:52;101526.68;;;3.88;83.99
57290;BME280;43523;53.022;-1.178;2022-09-17T03:48:54;101528.00;;;3.74;79.95
57290;BME280;43523;53.022;-1.178;2022-09-17T03:49:58;101524.73;;;4.13;77.74
57290;BME280;43523;53.022;-1.178;2022-09-17T03:51:01;101527.61;;;3.79;78.72
57290;BME280;43523;53.022;-1.178;2022-09-17T03:52:03;101528.71;;;3.96;83.84
57290;BME280;43523;53.022;-1.178;2022-09-17T03:53:07;101528.20;;;4.29;77.88
57290;BME280;43523;53.022;-1.178;2022-09-17T03:54:09;101529.56;;;3.95;80.93
57290;BME280;43523;53.022;-1.178;2022-09-17T03:55:11;101531.24;;;4.48;81.76
57290;BME280;43523;53.022;-1.178;2022-09-17T03:56:14;101532.40;;;4.48;78.91
57290;BME280;43523;53.022;-1.178;2022-09-17T03:57:16;101533.74;;;4.60;76.23
57290;BME280;43523;53.022;-1.178;2022-09-17T03:58:19;101535.20;;;4.36;78.34
57290;BME280;43523;53.022;-1.178;2022-09-17T03:59:21;101536.01;;;3.94;78.52
57290;BME280;43523;53.022;-1.178;2022-09-17T04:00:24;101538.25;;;4.20;79.58
57290;BME280;43523;53.022;-1.178;2022-09-17T04:01:27;101540.06;;;4.04;74.84
57290;BME280;43523;53.022;-1.178;2022-09-17T04:02:30;101546.90;;;3.91;82.98
57290;BME280;43523;53.022;-1.178;2022-09-17T04:03:32;101543.47;;;4.03;81.06
57290;BME280;43523;53.022;-1.178;2022-09-17T04:04:35;101543.33;;;4.10;76.56
57290;BME280;43523;53.022;-1.178;2022-09-17T04:05:37;101543.57;;;4.27;75.41
57290;BME280;43523;53.022;-1.178;2022-09-17T04:06:40;101545.74;;;4.14;72.12
57290;BME280;43523;53.022;-1.178;2022-09-17T04:07:42;101544.59;;;4.62;69.89
57290;BME280;43523;53.022;-1.178;2022-09-17T04:08:44;101542.65;;;4.11;67.29
57290;BME280;43523;53.022;-1.178;2022-09-17T04:09:47;101549.40;;;3.85;75.63
57290;BME280;43523;53.022;-1.178;2022-09-17T04:10:49;101546.98;;;4.07;76.77
57290;BME280;43523;53.022;-1.178;2022-09-17T04:11:52;101544.62;;;3.80;70.66
57290;BME280;43523;53.022;-1.178;2022-09-17T04:12:54;101546.72;;;3.93;72.49
57290;BME280;43523;53.022;-1.178;2022-09-17T04:13:58;101542.70;;;3.95;70.49
57290;BME280;43523;53.022;-1.178;2022-09-17T04:15:00;101547.92;;;3.54;78.97
57290;BME280;43523;53.022;-1.178;2022-09-17T04:16:04;101548.03;;;3.94;76.89
57290;BME280;43523;53.022;-1.178;2022-09-17T04:17:07;101551.36;;;3.64;80.23
57290;BME280;43523;53.022;-1.178;2022-09-17T04:18:10;101550.96;;;3.75;78.96
57290;BME280;43523;53.022;-1.178;2022-09-17T04:19:12;101551.40;;;3.64;75.80
57290;BME280;43523;53.022;-1.178;2022-09-17T04:20:15;101551.22;;;4.02;72.49
57290;BME280;43523;53.022;-1.178;2022-09-17T04:21:17;101554.11;;;3.84;75.96
57290;BME280;43523;53.022;-1.178;2022-09-17T04:22:20;101559.72;;;3.96;81.53
57290;BME280;43523;53.022;-1.178;2022-09-17T04:23:22;101557.08;;;3.98;82.72
57290;BME280;43523;53.022;-1.178;2022-09-17T04:24:24;101561.60;;;4.16;76.12
57290;BME280;43523;53.022;-1.178;2022-09-17T04:25:27;101558.13;;;4.08;72.42
57290;BME280;43523;53.022;-1.178;2022-09-17T04:26:30;101554.63;;;4.26;69.56
57290;BME280;43523;53.022;-1.178;2022-09-17T04:27:32;101556.95;;;2.87;76.20
57290;BME280;43523;53.022;-1.178;2022-09-17T04:28:34;101551.25;;;3.47;71.52
57290;BME280;43523;53.022;-1.178;2022-09-17T04:29:37;101551.62;;;3.60;80.92
57290;BME280;43523;53.022;-1.178;2022-09-17T04:30:39;101548.62;;;3.43;72.41
57290;BME280;43523;53.022;-1.178;2022-09-17T04:31:42;101551.47;;;3.13;79.30
57290;BME280;43523;53.022;-1.178;2022-09-17T04:32:45;101550.40;;;3.21;76.32
57290;BME280;43523;53.022;-1.178;2022-09-17T04:33:47;101552.85;;;3.47;77.29
57290;BME280;43523;53.022;-1.178;2022-09-17T04:34:49;101552.08;;;3.56;72.06
57290;BME280;43523;53.022;-1.178;2022-09-17T04:35:52;101550.39;;;3.52;72.11
57290;BME280;43523;53.022;-1.178;2022-09-17T04:36:55;101550.00;;;3.28;72.12
57290;BME280;43523;53.022;-1.178;2022-09-17T04:37:58;101552.04;;;3.39;72.25
57290;BME280;43523;53.022;-1.178;2022-09-17T04:39:01;101552.87;;;3.40;73.94
57290;BME280;43523;53.022;-1.178;2022-09-17T04:40:03;101553.04;;;3.66;78.54
57290;BME280;43523;53.022;-1.178;2022-09-17T04:41:08;101553.63;;;3.59;75.06
57290;BME280;43523;53.022;-1.178;2022-09-17T04:42:10;101554.13;;;3.36;73.58
57290;BME280;43523;53.022;-1.178;2022-09-17T04:43:13;101554.26;;;3.64;73.41
57290;BME280;43523;53.022;-1.178;2022-09-17T04:44:15;101556.81;;;3.62;74.40
57290;BME280;43523;53.022;-1.178;2022-09-17T04:45:18;101559.87;;;3.71;82.05
57290;BME280;43523;53.022;-1.178;2022-09-17T04:46:20;101561.16;;;3.77;84.44
57290;BME280;43523;53.022;-1.178;2022-09-17T04:47:23;101558.34;;;3.88;80.52
57290;BME280;43523;53.022;-1.178;2022-09-17T04:48:25;101557.73;;;3.74;77.37
57290;BME280;43523;53.022;-1.178;2022-09-17T04:49:28;101558.24;;;3.50;75.25
57290;BME280;43523;53.022;-1.178;2022-09-17T04:50:31;101558.12;;;3.44;80.38
57290;BME280;43523;53.022;-1.178;2022-09-17T04:51:33;101556.41;;;3.71;79.79
57290;BME280;43523;53.022;-1.178;2022-09-17T04:52:35;101557.58;;;3.62;82.29
57290;BME280;43523;53.022;-1.178;2022-09-17T04:53:38;101555.66;;;3.80;82.77
57290;BME280;43523;53.022;-1.178;2022-09-17T04:54:40;101555.16;;;3.89;83.72
57290;BME280;43523;53.022;-1.178;2022-09-17T04:55:43;101552.65;;;4.19;81.43
57290;BME280;43523;53.022;-1.178;2022-09-17T04:56:45;101552.16;;;3.74;83.06
57290;BME280;43523;53.022;-1.178;2022-09-17T04:57:49;101551.26;;;4.02;84.22
57290;BME280;43523;53.022;-1.178;2022-09-17T04:58:51;101552.62;;;3.95;83.31
57290;BME280;43523;53.022;-1.178;2022-09-17T04:59:53;101548.05;;;2.73;80.85
57290;BME280;43523;53.022;-1.178;2022-09-17T05:00:57;101546.49;;;3.67;75.96
57290;BME280;43523;53.022;-1.178;2022-09-17T05:02:00;101547.98;;;2.89;78.01
57290;BME280;43523;53.022;-1.178;2022-09-17T05:03:02;101549.08;;;2.99;81.37
57290;BME280;43523;53.022;-1.178;2022-09-17T05:04:04;101551.56;;;3.23;82.63
57290;BME280;43523;53.022;-1.178;2022-09-17T05:05:08;101553.02;;;3.23;86.76
57290;BME280;43523;53.022;-1.178;2022-09-17T05:06:10;101555.34;;;3.72;79.81
57290;BME280;43523;53.022;-1.178;2022-09-17T05:07:13;101555.12;;;3.67;80.96
57290;BME280;43523;53.022;-1.178;2022-09-17T05:08:15;101553.96;;;3.29;80.86
57290;BME280;43523;53.022;-1.178;2022-09-17T05:09:18;101555.48;;;3.43;85.30
57290;BME280;43523;53.022;-1.178;2022-09-17T05:10:21;101556.14;;;3.26;86.19
57290;BME280;43523;53.022;-1.178;2022-09-17T05:11:24;101555.92;;;3.71;83.39
57290;BME280;43523;53.022;-1.178;2022-09-17T05:12:27;101555.78;;;3.51;81.87
57290;BME280;43523;53.022;-1.178;2022-09-17T05:13:29;101555.15;;;3.25;82.21
57290;BME280;43523;53.022;-1.178;2022-09-17T05:14:32;101555.35;;;3.60;85.11
57290;BME280;43523;53.022;-1.178;2022-09-17T05:15:34;101555.35;;;3.40;82.86
57290;BME280;43523;53.022;-1.178;2022-09-17T05:16:36;101554.32;;;3.64;81.49
57290;BME280;43523;53.022;-1.178;2022-09-17T05:17:39;101554.49;;;3.69;84.33
57290;BME280;43523;53.022;-1.178;2022-09-17T05:18:41;101551.83;;;3.56;85.24
57290;BME280;43523;53.022;-1.178;2022-09-17T05:19:44;101548.97;;;3.94;81.14
57290;BME280;43523;53.022;-1.178;2022-09-17T05:20:47;101548.24;;;3.72;82.33
57290;BME280;43523;53.022;-1.178;2022-09-17T05:21:49;101548.87;;;3.49;84.71
57290;BME280;43523;53.022;-1.178;2022-09-17T05:22:52;101550.71;;;3.56;82.85
57290;BME280;43523;53.022;-1.178;2022-09-17T05:23:54;101551.65;;;3.75;83.56
57290;BME280;43523;53.022;-1.178;2022-09-17T05:24:57;101554.09;;;3.56;81.80
57290;BME280;43523;53.022;-1.178;2022-09-17T05:26:00;101553.10;;;3.11;82.49
57290;BME280;43523;53.022;-1.178;2022-09-17T05:27:02;101555.27;;;3.44;74.66
57290;BME280;43523;53.022;-1.178;2022-09-17T05:28:05;101555.04;;;3.64;81.02
57290;BME280;43523;53.022;-1.178;2022-09-17T05:29:07;101557.15;;;3.36;81.07
57290;BME280;43523;53.022;-1.178;2022-09-17T05:30:11;101555.52;;;3.51;84.09
57290;BME280;43523;53.022;-1.178;2022-09-17T05:31:13;101555.43;;;3.67;82.30
57290;BME280;43523;53.022;-1.178;2022-09-17T05:32:16;101554.32;;;3.52;81.54
57290;BME280;43523;53.022;-1.178;2022-09-17T05:33:19;101557.56;;;3.43;82.12
57290;BME280;43523;53.022;-1.178;2022-09-17T05:34:21;101553.25;;;2.91;81.98
57290;BME280;43523;53.022;-1.178;2022-09-17T05:35:23;101555.53;;;3.10;86.52
57290;BME280;43523;53.022;-1.178;2022-09-17T05:36:25;101556.20;;;3.29;87.50
57290;BME280;43523;53.022;-1.178;2022-09-17T05:37:28;101554.90;;;3.51;82.22
57290;BME280;43523;53.022;-1.178;2022-09-17T05:38:30;101556.57;;;3.49;84.44
57290;BME280;43523;53.022;-1.178;2022-09-17T05:39:33;101555.20;;;3.41;85.01
57290;BME280;43523;53.022;-1.178;2022-09-17T05:40:36;101555.75;;;3.42;79.49
57290;BME280;43523;53.022;-1.178;2022-09-17T05:41:38;101555.36;;;3.51;79.96
57290;BME280;43523;53.022;-1.178;2022-09-17T05:42:40;101554.71;;;3.30;79.09
57290;BME280;43523;53.022;-1.178;2022-09-17T05:43:43;101556.06;;;3.49;81.55
57290;BME280;43523;53.022;-1.178;2022-09-17T05:44:45;101555.43;;;3.43;76.76
57290;BME280;43523;53.022;-1.178;2022-09-17T05:45:48;101552.11;;;3.21;81.94